Bungay, Illinois
Current Conditions -  °F | °C
As of 1:15 PM on Friday 28 Nov 2014 (Local Time) from KFWC Reporting Station
Clear Clear  
Wind Chill: 32°   Ceiling: Unl
Heat Index: 40°   Visibility: 10mi
Dew Point: 33°   Wind: 15mph
Humidity: 75%   Direction: 150°SSE
Pressure: 30.14"   Gusts: 18mph
Location:  38.1658°N, 88.3782°W
Report Text: KFWC 281915Z AUTO 15013G16KT 10SM CLR 05/01 A3014 RMK AO1 T00460005
Loading
Personal Weather Stations






























Interactive Weather Map New forecast layout! Learn more

10-Day Weather Forecast

Advertisements
Track Severe Weather on mobile